TimeMDT,TemperatureF,Dew PointF,Humidity,Sea Level PressureIn,VisibilityMPH,Wind Direction,Wind SpeedMPH,Gust SpeedMPH,PrecipitationIn,Events,Conditions,WindDirDegrees,DateUTC
12:15 AM,33.8,17.6,52,30.18,10.0,Calm,Calm,-,N/A,,Clear,0,2012-10-20 06:15:00
12:35 AM,33.8,17.6,52,30.17,10.0,Calm,Calm,-,N/A,,Clear,0,2012-10-20 06:35:00
12:55 AM,30.2,14.0,51,30.18,10.0,Calm,Calm,-,N/A,,Clear,0,2012-10-20 06:55:00
1:15 AM,30.2,15.8,55,30.18,10.0,Calm,Calm,-,N/A,,Clear,0,2012-10-20 07:15:00
1:35 AM,30.2,17.6,60,30.18,10.0,Calm,Calm,-,N/A,,Clear,0,2012-10-20 07:35:00
1:55 AM,28.4,15.8,59,30.18,10.0,ENE,5.8,-,N/A,,Clear,60,2012-10-20 07:55:00
2:15 AM,30.2,15.8,55,30.18,10.0,Calm,Calm,-,N/A,,Clear,0,2012-10-20 08:15:00
2:35 AM,30.2,15.8,55,30.18,10.0,Calm,Calm,-,N/A,,Clear,0,2012-10-20 08:35:00
2:55 AM,28.4,12.2,51,30.18,10.0,Calm,Calm,-,N/A,,Clear,0,2012-10-20 08:55:00
3:15 AM,26.6,15.8,64,30.18,10.0,ENE,3.5,-,N/A,,Clear,60,2012-10-20 09:15:00
3:55 AM,28.4,15.8,59,30.18,10.0,Calm,Calm,-,N/A,,Clear,0,2012-10-20 09:55:00
4:15 AM,26.6,12.2,55,30.19,10.0,North,4.6,-,N/A,,Clear,10,2012-10-20 10:15:00
4:35 AM,26.6,14.0,59,30.19,10.0,North,3.5,-,N/A,,Clear,360,2012-10-20 10:35:00
4:55 AM,26.6,14.0,59,30.19,10.0,Calm,Calm,-,N/A,,Clear,0,2012-10-20 10:55:00
5:15 AM,24.8,14.0,64,30.20,10.0,Calm,Calm,-,N/A,,Clear,0,2012-10-20 11:15:00
5:35 AM,24.8,14.0,64,30.20,10.0,Calm,Calm,-,N/A,,Clear,0,2012-10-20 11:35:00
5:55 AM,23.0,10.4,59,30.19,10.0,NE,3.5,-,N/A,,Clear,40,2012-10-20 11:55:00
6:15 AM,24.8,15.8,69,30.20,10.0,Calm,Calm,-,N/A,,Clear,0,2012-10-20 12:15:00
6:35 AM,23.0,12.2,63,30.20,10.0,Calm,Calm,-,N/A,,Clear,0,2012-10-20 12:35:00
6:55 AM,21.2,12.2,68,30.20,10.0,ENE,3.5,-,N/A,,Clear,60,2012-10-20 12:55:00
7:15 AM,23.0,14.0,68,30.20,10.0,Calm,Calm,-,N/A,,Clear,0,2012-10-20 13:15:00
7:35 AM,21.2,12.2,68,30.21,10.0,Calm,Calm,-,N/A,,Clear,0,2012-10-20 13:35:00
7:55 AM,17.6,8.6,68,30.21,10.0,Calm,Calm,-,N/A,,Clear,0,2012-10-20 13:55:00
8:15 AM,21.2,14.0,74,30.21,10.0,Calm,Calm,-,N/A,,Clear,0,2012-10-20 14:15:00
8:35 AM,26.6,17.6,69,30.22,10.0,Calm,Calm,-,N/A,,Clear,0,2012-10-20 14:35:00
8:55 AM,28.4,15.8,59,30.22,10.0,Calm,Calm,-,N/A,,Clear,0,2012-10-20 14:55:00
9:15 AM,30.2,17.6,60,30.21,10.0,Calm,Calm,-,N/A,,Clear,0,2012-10-20 15:15:00
9:35 AM,33.8,17.6,52,30.21,10.0,Calm,Calm,-,N/A,,Clear,0,2012-10-20 15:35:00
9:55 AM,35.6,17.6,48,30.21,10.0,Calm,Calm,-,N/A,,Clear,0,2012-10-20 15:55:00
10:15 AM,39.2,17.6,42,30.20,10.0,Calm,Calm,-,N/A,,Clear,0,2012-10-20 16:15:00
10:35 AM,41.0,19.4,42,30.19,10.0,Calm,Calm,-,N/A,,Clear,0,2012-10-20 16:35:00
10:55 AM,44.6,17.6,34,30.18,10.0,Calm,Calm,-,N/A,,Clear,0,2012-10-20 16:55:00
11:15 AM,46.4,17.6,32,30.16,10.0,Calm,Calm,-,N/A,,Clear,0,2012-10-20 17:15:00
11:35 AM,48.2,17.6,30,30.15,10.0,Calm,Calm,-,N/A,,Clear,0,2012-10-20 17:35:00
11:55 AM,51.8,19.4,28,30.13,10.0,Calm,Calm,-,N/A,,Clear,0,2012-10-20 17:55:00
12:15 PM,51.8,17.6,26,30.12,10.0,Calm,Calm,-,N/A,,Clear,0,2012-10-20 18:15:00
12:35 PM,53.6,19.4,26,30.10,10.0,North,3.5,-,N/A,,Clear,10,2012-10-20 18:35:00
12:55 PM,55.4,19.4,25,30.08,10.0,SE,3.5,-,N/A,,Clear,130,2012-10-20 18:55:00
1:15 PM,57.2,19.4,23,30.07,10.0,Calm,Calm,-,N/A,,Clear,0,2012-10-20 19:15:00
1:35 PM,60.8,19.4,20,30.05,10.0,Calm,Calm,-,N/A,,Clear,0,2012-10-20 19:35:00
1:55 PM,62.6,19.4,19,30.03,5.0,SSW,4.6,-,N/A,,Clear,200,2012-10-20 19:55:00
2:15 PM,64.4,21.2,19,30.01,5.0,WSW,9.2,17.3,N/A,,Clear,240,2012-10-20 20:15:00
2:35 PM,66.2,19.4,17,30.00,10.0,West,9.2,-,N/A,,Clear,260,2012-10-20 20:35:00
2:55 PM,68.0,19.4,16,29.99,10.0,WSW,10.4,16.1,N/A,,Clear,240,2012-10-20 20:55:00
3:15 PM,69.8,17.6,14,29.98,10.0,West,17.3,24.2,N/A,,Clear,280,2012-10-20 21:15:00
3:35 PM,69.8,17.6,14,29.98,10.0,WNW,18.4,25.3,N/A,,Clear,290,2012-10-20 21:35:00
3:55 PM,69.8,15.8,13,29.98,10.0,West,18.4,25.3,N/A,,Clear,270,2012-10-20 21:55:00
4:15 PM,68.0,15.8,13,29.98,10.0,West,19.6,25.3,N/A,,Clear,280,2012-10-20 22:15:00
4:35 PM,66.2,15.8,14,29.97,10.0,WNW,18.4,24.2,N/A,,Clear,290,2012-10-20 22:35:00
4:55 PM,66.2,14.0,13,29.97,10.0,West,13.8,21.9,N/A,,Clear,280,2012-10-20 22:55:00
5:15 PM,66.2,14.0,13,29.97,10.0,West,15.0,20.7,N/A,,Clear,270,2012-10-20 23:15:00
5:35 PM,66.2,12.2,12,29.97,10.0,WSW,13.8,19.6,N/A,,Clear,250,2012-10-20 23:35:00
5:55 PM,64.4,12.2,13,29.97,10.0,WSW,10.4,-,N/A,,Clear,250,2012-10-20 23:55:00
6:15 PM,62.6,12.2,14,29.97,10.0,West,8.1,-,N/A,,Clear,280,2012-10-21 00:15:00
6:55 PM,59.0,10.4,15,29.98,10.0,West,3.5,-,N/A,,Unknown,280,2012-10-21 00:55:00
7:15 PM,55.4,10.4,17,29.98,10.0,WNW,4.6,-,N/A,,Clear,300,2012-10-21 01:15:00
7:35 PM,53.6,10.4,18,29.98,10.0,North,6.9,-,N/A,,Clear,350,2012-10-21 01:35:00
7:55 PM,51.8,8.6,18,29.99,10.0,WNW,5.8,-,N/A,,Clear,300,2012-10-21 01:55:00
8:15 PM,50.0,10.4,20,30.00,10.0,NNW,8.1,-,N/A,,Clear,340,2012-10-21 02:15:00
8:35 PM,48.2,10.4,22,30.00,10.0,Calm,Calm,-,N/A,,Clear,0,2012-10-21 02:35:00
8:55 PM,44.6,12.2,27,30.01,10.0,Calm,Calm,-,N/A,,Clear,0,2012-10-21 02:55:00
9:15 PM,44.6,14.0,29,30.02,10.0,Calm,Calm,-,N/A,,Clear,0,2012-10-21 03:15:00
9:35 PM,44.6,14.0,29,30.03,10.0,Calm,Calm,-,N/A,,Clear,0,2012-10-21 03:35:00
9:55 PM,42.8,14.0,31,30.03,10.0,NNE,3.5,-,N/A,,Clear,30,2012-10-21 03:55:00
10:15 PM,37.4,12.2,36,30.04,10.0,East,5.8,-,N/A,,Clear,80,2012-10-21 04:15:00
10:35 PM,35.6,12.2,38,30.04,10.0,NE,3.5,-,N/A,,Clear,40,2012-10-21 04:35:00
10:55 PM,37.4,12.2,36,30.04,10.0,Calm,Calm,-,N/A,,Clear,0,2012-10-21 04:55:00
11:15 PM,37.4,14.0,38,30.05,10.0,NE,4.6,-,N/A,,Clear,50,2012-10-21 05:15:00
11:35 PM,33.8,8.6,35,30.05,10.0,Calm,Calm,-,N/A,,Clear,0,2012-10-21 05:35:00
11:55 PM,32.0,12.2,44,30.05,10.0,NNW,3.5,-,N/A,,Clear,340,2012-10-21 05:55:00